Christchurch, New Zealand

11:17 PM NZST on July 28, 2016 (GMT +1200)
Christchurch International | | Change Station

Elev 125 ft 43.48 °S, 172.55 °E | Updated 17 minutes ago

Clear
Clear
41 °F
Feels Like 38 °F
N
5
Wind Variable Wind from South

Today
High -- | Low -- °F
--% Chance of Precip.
Yesterday
High -- | Low -- °F
Precip. -- in
Pressure 29.12 in
Visibility 6.2 miles
Clouds
Windchill 38 °F
Dew Point 37 °F
Humidity 87%
Rainfall 0.00 in
Snow Depth Not available.
7:47 AM 5:25 PM
Waning Crescent, 33% visible
METAR NZCH 281100Z AUTO 19004KT 170V260 9999 NCD 05/03 Q0986 NOSIG
Pressure 29.12 in
Visibility 6.2 miles
Clouds
Windchill 38 °F
Dew Point 37 °F
Humidity 87%
Rainfall 0.00 in
Snow Depth Not available.
7:47 AM 5:25 PM
Waning Crescent, 33% visible
METAR NZCH 281100Z AUTO 19004KT 170V260 9999 NCD 05/03 Q0986 NOSIG

10-Day Weather Forecast

No radar image for this location.
×

Almanac

Astronomy

Jul. 28, 2016 Rise Set
Actual Time
Civil Twilight
Nautical Twilight
Astronomical Twilight
Moon
Length of Visible Light
Length of Day
Tomorrow will be .
, % of the Moon is Illuminated

Today's Extremes

Country Highs Country Lows

Community

WunderPhotos

Upload Photos

1,928,082 photos uploaded!

WunderBlog® & News

Nearby

Air Quality

  Air Quality AQ Index Pollutant
Not available.

Snow Depth

Station Depth Elevation

Earthquake Activity

City Distance Mag. Time & Date
Minimum magnitude displayed is 2.5.

Coastal Water Temperatures

Place Temperature

Stations

Nearby Weather Stations

Station Location Temp. Windchill Dew Point Humidity Wind Precip. Elev Updated Type